sensor_id;sensor_type;location;lat;lon;timestamp;temperature;humidity
37204;DHT22;23098;48.054;10.636;2023-02-15T00:00:08;-2.50;99.90
37204;DHT22;23098;48.054;10.636;2023-02-15T00:02:35;-2.60;99.90
37204;DHT22;23098;48.054;10.636;2023-02-15T00:05:02;-2.60;99.90
37204;DHT22;23098;48.054;10.636;2023-02-15T00:07:28;-2.60;99.90
37204;DHT22;23098;48.054;10.636;2023-02-15T00:09:53;-2.60;99.90
37204;DHT22;23098;48.054;10.636;2023-02-15T00:12:19;-2.60;99.90
37204;DHT22;23098;48.054;10.636;2023-02-15T00:14:44;-2.60;99.90
37204;DHT22;23098;48.054;10.636;2023-02-15T00:17:10;-2.60;99.90
37204;DHT22;23098;48.054;10.636;2023-02-15T00:19:36;-2.50;99.90
37204;DHT22;23098;48.054;10.636;2023-02-15T00:22:01;-2.40;99.90
37204;DHT22;23098;48.054;10.636;2023-02-15T00:24:27;-2.40;99.90
37204;DHT22;23098;48.054;10.636;2023-02-15T00:26:52;-2.40;99.90
37204;DHT22;23098;48.054;10.636;2023-02-15T00:29:19;-2.40;99.90
37204;DHT22;23098;48.054;10.636;2023-02-15T00:31:44;-2.30;99.90
37204;DHT22;23098;48.054;10.636;2023-02-15T00:34:29;-2.40;99.90
37204;DHT22;23098;48.054;10.636;2023-02-15T00:36:55;-2.40;99.90
37204;DHT22;23098;48.054;10.636;2023-02-15T00:39:20;-2.40;99.90
37204;DHT22;23098;48.054;10.636;2023-02-15T00:41:47;-2.30;99.90
37204;DHT22;23098;48.054;10.636;2023-02-15T00:44:13;-2.40;99.90
37204;DHT22;23098;48.054;10.636;2023-02-15T00:46:39;-2.40;99.90
37204;DHT22;23098;48.054;10.636;2023-02-15T00:49:05;-2.30;99.90
37204;DHT22;23098;48.054;10.636;2023-02-15T00:51:31;-2.30;99.90
37204;DHT22;23098;48.054;10.636;2023-02-15T00:53:57;-2.40;99.90
37204;DHT22;23098;48.054;10.636;2023-02-15T00:56:23;-2.40;99.90
37204;DHT22;23098;48.054;10.636;2023-02-15T00:58:48;-2.40;99.90
37204;DHT22;23098;48.054;10.636;2023-02-15T01:01:17;-2.50;99.90
37204;DHT22;23098;48.054;10.636;2023-02-15T01:03:43;-2.50;99.90
37204;DHT22;23098;48.054;10.636;2023-02-15T01:06:10;-2.60;99.90
37204;DHT22;23098;48.054;10.636;2023-02-15T01:08:36;-2.50;99.90
37204;DHT22;23098;48.054;10.636;2023-02-15T01:11:07;-2.50;99.90
37204;DHT22;23098;48.054;10.636;2023-02-15T01:13:34;-2.50;99.90
37204;DHT22;23098;48.054;10.636;2023-02-15T01:16:00;-2.60;99.90
37204;DHT22;23098;48.054;10.636;2023-02-15T01:18:26;-2.60;99.90
37204;DHT22;23098;48.054;10.636;2023-02-15T01:20:51;-2.60;99.90
37204;DHT22;23098;48.054;10.636;2023-02-15T01:23:17;-2.50;99.90
37204;DHT22;23098;48.054;10.636;2023-02-15T01:25:43;-2.50;99.90
37204;DHT22;23098;48.054;10.636;2023-02-15T01:28:08;-2.40;99.90
37204;DHT22;23098;48.054;10.636;2023-02-15T01:30:34;-2.40;99.90
37204;DHT22;23098;48.054;10.636;2023-02-15T01:32:59;-2.50;99.90
37204;DHT22;23098;48.054;10.636;2023-02-15T01:35:26;-2.60;99.90
37204;DHT22;23098;48.054;10.636;2023-02-15T01:37:52;-2.70;99.90
37204;DHT22;23098;48.054;10.636;2023-02-15T01:40:18;-2.70;99.90
37204;DHT22;23098;48.054;10.636;2023-02-15T01:42:44;-2.60;99.90
37204;DHT22;23098;48.054;10.636;2023-02-15T01:50:34;-2.60;99.90
37204;DHT22;23098;48.054;10.636;2023-02-15T01:53:25;-2.60;99.90
37204;DHT22;23098;48.054;10.636;2023-02-15T01:56:11;-2.80;99.90
37204;DHT22;23098;48.054;10.636;2023-02-15T01:58:38;-2.80;99.90
37204;DHT22;23098;48.054;10.636;2023-02-15T02:01:04;-2.80;99.90
37204;DHT22;23098;48.054;10.636;2023-02-15T02:04:05;-2.90;99.90
37204;DHT22;23098;48.054;10.636;2023-02-15T02:06:33;-2.90;99.90
37204;DHT22;23098;48.054;10.636;2023-02-15T02:09:00;-2.80;99.90
37204;DHT22;23098;48.054;10.636;2023-02-15T02:11:26;-2.80;99.90
37204;DHT22;23098;48.054;10.636;2023-02-15T02:13:52;-2.80;99.90
37204;DHT22;23098;48.054;10.636;2023-02-15T02:16:35;-2.80;99.90
37204;DHT22;23098;48.054;10.636;2023-02-15T02:22:37;-2.80;99.90
37204;DHT22;23098;48.054;10.636;2023-02-15T02:30:41;-3.10;99.90
37204;DHT22;23098;48.054;10.636;2023-02-15T02:36:25;-3.10;99.90
37204;DHT22;23098;48.054;10.636;2023-02-15T02:47:30;-3.30;99.90
37204;DHT22;23098;48.054;10.636;2023-02-15T02:50:06;-3.30;99.90
37204;DHT22;23098;48.054;10.636;2023-02-15T02:52:43;-3.20;99.90
37204;DHT22;23098;48.054;10.636;2023-02-15T02:55:27;-3.20;99.90
37204;DHT22;23098;48.054;10.636;2023-02-15T03:00:33;-3.20;99.90
37204;DHT22;23098;48.054;10.636;2023-02-15T03:03:09;-3.10;99.90
37204;DHT22;23098;48.054;10.636;2023-02-15T03:05:41;-3.10;99.90
37204;DHT22;23098;48.054;10.636;2023-02-15T03:08:09;-3.10;99.90
37204;DHT22;23098;48.054;10.636;2023-02-15T03:10:38;-3.10;99.90
37204;DHT22;23098;48.054;10.636;2023-02-15T03:13:04;-3.10;99.90
37204;DHT22;23098;48.054;10.636;2023-02-15T03:15:34;-3.10;99.90
37204;DHT22;23098;48.054;10.636;2023-02-15T03:18:24;-3.10;99.90
37204;DHT22;23098;48.054;10.636;2023-02-15T03:20:52;-3.10;99.90
37204;DHT22;23098;48.054;10.636;2023-02-15T03:23:21;-3.10;99.90
37204;DHT22;23098;48.054;10.636;2023-02-15T03:25:56;-3.20;99.90
37204;DHT22;23098;48.054;10.636;2023-02-15T03:28:33;-3.30;99.90
37204;DHT22;23098;48.054;10.636;2023-02-15T03:31:02;-3.30;99.90
37204;DHT22;23098;48.054;10.636;2023-02-15T03:33:28;-3.20;99.90
37204;DHT22;23098;48.054;10.636;2023-02-15T03:36:08;-3.20;99.90
37204;DHT22;23098;48.054;10.636;2023-02-15T03:38:43;-3.30;99.90
37204;DHT22;23098;48.054;10.636;2023-02-15T03:41:11;-3.40;99.90
37204;DHT22;23098;48.054;10.636;2023-02-15T03:43:55;-3.40;99.90
37204;DHT22;23098;48.054;10.636;2023-02-15T03:46:52;-3.30;99.90
37204;DHT22;23098;48.054;10.636;2023-02-15T03:49:40;-3.30;99.90
37204;DHT22;23098;48.054;10.636;2023-02-15T03:52:08;-3.30;99.90
37204;DHT22;23098;48.054;10.636;2023-02-15T03:54:36;-3.30;99.90
37204;DHT22;23098;48.054;10.636;2023-02-15T03:59:56;-3.30;99.90
37204;DHT22;23098;48.054;10.636;2023-02-15T04:05:41;-3.40;99.90
37204;DHT22;23098;48.054;10.636;2023-02-15T04:08:08;-3.50;99.90
37204;DHT22;23098;48.054;10.636;2023-02-15T04:10:34;-3.50;99.90
37204;DHT22;23098;48.054;10.636;2023-02-15T04:13:23;-3.50;99.90
37204;DHT22;23098;48.054;10.636;2023-02-15T04:15:49;-3.50;99.90
37204;DHT22;23098;48.054;10.636;2023-02-15T04:18:35;-3.60;99.90
37204;DHT22;23098;48.054;10.636;2023-02-15T04:21:20;-3.60;99.90
37204;DHT22;23098;48.054;10.636;2023-02-15T04:24:05;-3.70;99.90
37204;DHT22;23098;48.054;10.636;2023-02-15T04:26:50;-3.70;99.90
37204;DHT22;23098;48.054;10.636;2023-02-15T04:29:21;-3.60;99.90
37204;DHT22;23098;48.054;10.636;2023-02-15T04:31:47;-3.60;99.90
37204;DHT22;23098;48.054;10.636;2023-02-15T04:34:13;-3.60;99.90
37204;DHT22;23098;48.054;10.636;2023-02-15T04:36:39;-3.50;99.90
37204;DHT22;23098;48.054;10.636;2023-02-15T04:39:06;-3.50;99.90
37204;DHT22;23098;48.054;10.636;2023-02-15T04:41:32;-3.50;99.90
37204;DHT22;23098;48.054;10.636;2023-02-15T04:43:57;-3.50;99.90
37204;DHT22;23098;48.054;10.636;2023-02-15T04:46:24;-3.60;99.90
37204;DHT22;23098;48.054;10.636;2023-02-15T04:48:50;-3.60;99.90
37204;DHT22;23098;48.054;10.636;2023-02-15T04:51:15;-3.60;99.90
37204;DHT22;23098;48.054;10.636;2023-02-15T04:53:41;-3.60;99.90
37204;DHT22;23098;48.054;10.636;2023-02-15T04:56:06;-3.70;99.90
37204;DHT22;23098;48.054;10.636;2023-02-15T04:58:32;-3.70;99.90
37204;DHT22;23098;48.054;10.636;2023-02-15T05:00:57;-3.70;99.90
37204;DHT22;23098;48.054;10.636;2023-02-15T05:03:24;-3.80;99.90
37204;DHT22;23098;48.054;10.636;2023-02-15T05:05:50;-3.80;99.90
37204;DHT22;23098;48.054;10.636;2023-02-15T05:08:16;-3.70;99.90
37204;DHT22;23098;48.054;10.636;2023-02-15T05:10:42;-3.80;99.90
37204;DHT22;23098;48.054;10.636;2023-02-15T05:13:07;-3.80;99.90
37204;DHT22;23098;48.054;10.636;2023-02-15T05:15:33;-3.90;99.90
37204;DHT22;23098;48.054;10.636;2023-02-15T05:17:58;-3.90;99.90
37204;DHT22;23098;48.054;10.636;2023-02-15T05:20:24;-3.90;99.90
37204;DHT22;23098;48.054;10.636;2023-02-15T05:22:53;-3.80;99.90
37204;DHT22;23098;48.054;10.636;2023-02-15T05:25:19;-3.90;99.90
37204;DHT22;23098;48.054;10.636;2023-02-15T05:28:03;-3.90;99.90
37204;DHT22;23098;48.054;10.636;2023-02-15T05:30:56;-4.10;99.90
37204;DHT22;23098;48.054;10.636;2023-02-15T05:33:24;-4.30;99.90
37204;DHT22;23098;48.054;10.636;2023-02-15T05:35:50;-4.30;99.90
37204;DHT22;23098;48.054;10.636;2023-02-15T05:38:16;-4.30;99.90
37204;DHT22;23098;48.054;10.636;2023-02-15T05:40:41;-4.30;99.90
37204;DHT22;23098;48.054;10.636;2023-02-15T05:43:07;-4.40;99.90
37204;DHT22;23098;48.054;10.636;2023-02-15T05:45:32;-4.40;99.90
37204;DHT22;23098;48.054;10.636;2023-02-15T05:47:58;-4.30;99.90
37204;DHT22;23098;48.054;10.636;2023-02-15T05:50:24;-4.40;99.90
37204;DHT22;23098;48.054;10.636;2023-02-15T05:52:50;-4.40;99.90
37204;DHT22;23098;48.054;10.636;2023-02-15T05:55:15;-4.40;99.90
37204;DHT22;23098;48.054;10.636;2023-02-15T05:57:41;-4.40;99.90
37204;DHT22;23098;48.054;10.636;2023-02-15T06:00:07;-4.50;99.90
37204;DHT22;23098;48.054;10.636;2023-02-15T06:02:34;-4.40;99.90
37204;DHT22;23098;48.054;10.636;2023-02-15T06:05:00;-4.60;99.90
37204;DHT22;23098;48.054;10.636;2023-02-15T06:07:25;-4.50;99.90
37204;DHT22;23098;48.054;10.636;2023-02-15T06:09:51;-4.50;99.90
37204;DHT22;23098;48.054;10.636;2023-02-15T06:12:16;-4.50;99.90
37204;DHT22;23098;48.054;10.636;2023-02-15T06:14:42;-4.50;99.90
37204;DHT22;23098;48.054;10.636;2023-02-15T06:17:08;-4.40;99.90
37204;DHT22;23098;48.054;10.636;2023-02-15T06:19:33;-4.50;99.90
37204;DHT22;23098;48.054;10.636;2023-02-15T06:21:59;-4.40;99.90
37204;DHT22;23098;48.054;10.636;2023-02-15T06:24:24;-4.40;99.90
37204;DHT22;23098;48.054;10.636;2023-02-15T06:26:50;-4.40;99.90
37204;DHT22;23098;48.054;10.636;2023-02-15T06:29:15;-4.40;99.90
37204;DHT22;23098;48.054;10.636;2023-02-15T06:31:41;-4.30;99.90
37204;DHT22;23098;48.054;10.636;2023-02-15T06:34:06;-4.40;99.90
37204;DHT22;23098;48.054;10.636;2023-02-15T06:36:32;-4.30;99.90
37204;DHT22;23098;48.054;10.636;2023-02-15T06:38:57;-4.30;99.90
37204;DHT22;23098;48.054;10.636;2023-02-15T06:41:23;-4.30;99.90
37204;DHT22;23098;48.054;10.636;2023-02-15T06:43:49;-4.30;99.90
37204;DHT22;23098;48.054;10.636;2023-02-15T06:46:15;-4.30;99.90
37204;DHT22;23098;48.054;10.636;2023-02-15T06:48:42;-4.30;99.90
37204;DHT22;23098;48.054;10.636;2023-02-15T06:51:07;-4.20;99.90
37204;DHT22;23098;48.054;10.636;2023-02-15T06:53:33;-4.20;99.90
37204;DHT22;23098;48.054;10.636;2023-02-15T06:56:07;-4.10;99.90
37204;DHT22;23098;48.054;10.636;2023-02-15T06:58:35;-4.00;99.90
37204;DHT22;23098;48.054;10.636;2023-02-15T07:01:01;-4.00;99.90
37204;DHT22;23098;48.054;10.636;2023-02-15T07:03:26;-3.90;99.90
37204;DHT22;23098;48.054;10.636;2023-02-15T07:05:56;-3.90;99.90
37204;DHT22;23098;48.054;10.636;2023-02-15T07:08:23;-3.80;99.90
37204;DHT22;23098;48.054;10.636;2023-02-15T07:10:49;-3.70;99.90
37204;DHT22;23098;48.054;10.636;2023-02-15T07:13:15;-3.70;99.90
37204;DHT22;23098;48.054;10.636;2023-02-15T07:15:40;-3.60;99.90
37204;DHT22;23098;48.054;10.636;2023-02-15T07:18:06;-3.50;99.90
37204;DHT22;23098;48.054;10.636;2023-02-15T07:20:31;-3.50;99.90
37204;DHT22;23098;48.054;10.636;2023-02-15T07:22:59;-3.40;99.90
37204;DHT22;23098;48.054;10.636;2023-02-15T07:25:25;-3.40;99.90
37204;DHT22;23098;48.054;10.636;2023-02-15T07:27:59;-3.40;99.90
37204;DHT22;23098;48.054;10.636;2023-02-15T07:30:26;-3.30;99.90
37204;DHT22;23098;48.054;10.636;2023-02-15T07:32:58;-3.30;99.90
37204;DHT22;23098;48.054;10.636;2023-02-15T07:35:59;-3.20;99.90
37204;DHT22;23098;48.054;10.636;2023-02-15T07:38:26;-3.00;99.90
37204;DHT22;23098;48.054;10.636;2023-02-15T07:40:57;-3.00;99.90
37204;DHT22;23098;48.054;10.636;2023-02-15T07:43:23;-2.80;99.90
37204;DHT22;23098;48.054;10.636;2023-02-15T07:45:49;-2.60;99.90
37204;DHT22;23098;48.054;10.636;2023-02-15T07:48:14;-2.50;99.90
37204;DHT22;23098;48.054;10.636;2023-02-15T07:50:40;-2.30;99.90
37204;DHT22;23098;48.054;10.636;2023-02-15T07:53:05;-2.20;99.90
37204;DHT22;23098;48.054;10.636;2023-02-15T07:55:31;-2.10;99.90
37204;DHT22;23098;48.054;10.636;2023-02-15T07:57:59;-2.00;99.90
37204;DHT22;23098;48.054;10.636;2023-02-15T08:00:25;-1.80;99.90
37204;DHT22;23098;48.054;10.636;2023-02-15T08:02:52;-1.60;99.90
37204;DHT22;23098;48.054;10.636;2023-02-15T08:05:39;-1.50;99.90
37204;DHT22;23098;48.054;10.636;2023-02-15T08:08:05;-1.30;99.90
37204;DHT22;23098;48.054;10.636;2023-02-15T08:10:31;-1.20;99.90
37204;DHT22;23098;48.054;10.636;2023-02-15T08:13:15;-1.10;99.90
37204;DHT22;23098;48.054;10.636;2023-02-15T08:15:49;-1.00;99.90
37204;DHT22;23098;48.054;10.636;2023-02-15T08:18:16;-0.80;99.90
37204;DHT22;23098;48.054;10.636;2023-02-15T08:20:42;-0.70;99.90
37204;DHT22;23098;48.054;10.636;2023-02-15T08:23:08;-0.50;99.90
37204;DHT22;23098;48.054;10.636;2023-02-15T08:25:34;-0.30;99.90
37204;DHT22;23098;48.054;10.636;2023-02-15T08:27:59;0.00;99.90
37204;DHT22;23098;48.054;10.636;2023-02-15T08:30:25;0.20;99.90
37204;DHT22;23098;48.054;10.636;2023-02-15T08:32:50;0.40;99.90
37204;DHT22;23098;48.054;10.636;2023-02-15T08:35:16;0.60;99.90
37204;DHT22;23098;48.054;10.636;2023-02-15T08:37:42;0.60;99.90
37204;DHT22;23098;48.054;10.636;2023-02-15T08:40:08;0.80;99.90
37204;DHT22;23098;48.054;10.636;2023-02-15T08:42:34;0.90;99.90
37204;DHT22;23098;48.054;10.636;2023-02-15T08:44:59;0.90;99.90
37204;DHT22;23098;48.054;10.636;2023-02-15T08:47:25;1.00;99.90
37204;DHT22;23098;48.054;10.636;2023-02-15T08:49:50;1.10;99.90
37204;DHT22;23098;48.054;10.636;2023-02-15T08:52:16;1.50;99.90
37204;DHT22;23098;48.054;10.636;2023-02-15T08:54:42;1.90;99.90
37204;DHT22;23098;48.054;10.636;2023-02-15T08:57:08;1.90;99.90
37204;DHT22;23098;48.054;10.636;2023-02-15T08:59:34;2.00;99.90
37204;DHT22;23098;48.054;10.636;2023-02-15T09:02:00;2.20;99.90
37204;DHT22;23098;48.054;10.636;2023-02-15T09:04:26;2.60;99.90
37204;DHT22;23098;48.054;10.636;2023-02-15T09:06:52;2.80;99.90
37204;DHT22;23098;48.054;10.636;2023-02-15T09:09:18;3.00;99.90
37204;DHT22;23098;48.054;10.636;2023-02-15T09:11:47;3.20;99.90
37204;DHT22;23098;48.054;10.636;2023-02-15T09:14:20;3.40;99.90
37204;DHT22;23098;48.054;10.636;2023-02-15T09:16:47;3.60;99.90
37204;DHT22;23098;48.054;10.636;2023-02-15T09:19:15;3.70;99.90
37204;DHT22;23098;48.054;10.636;2023-02-15T09:21:42;4.00;99.90
37204;DHT22;23098;48.054;10.636;2023-02-15T09:24:10;4.10;99.90
37204;DHT22;23098;48.054;10.636;2023-02-15T09:26:40;4.40;99.90
37204;DHT22;23098;48.054;10.636;2023-02-15T09:29:06;4.60;99.90
37204;DHT22;23098;48.054;10.636;2023-02-15T09:31:43;4.40;99.90
37204;DHT22;23098;48.054;10.636;2023-02-15T09:34:12;4.30;99.90
37204;DHT22;23098;48.054;10.636;2023-02-15T09:36:39;4.60;99.90
37204;DHT22;23098;48.054;10.636;2023-02-15T09:50:20;5.40;99.90
37204;DHT22;23098;48.054;10.636;2023-02-15T09:55:26;5.60;99.90
37204;DHT22;23098;48.054;10.636;2023-02-15T09:58:04;5.90;99.90
37204;DHT22;23098;48.054;10.636;2023-02-15T10:06:20;6.70;99.90
37204;DHT22;23098;48.054;10.636;2023-02-15T10:11:17;7.40;99.90
37204;DHT22;23098;48.054;10.636;2023-02-15T10:17:41;7.90;99.90
37204;DHT22;23098;48.054;10.636;2023-02-15T10:20:38;7.70;99.90
37204;DHT22;23098;48.054;10.636;2023-02-15T10:23:31;7.80;99.90
37204;DHT22;23098;48.054;10.636;2023-02-15T10:26:32;7.80;99.90
37204;DHT22;23098;48.054;10.636;2023-02-15T10:31:46;8.00;99.90
37204;DHT22;23098;48.054;10.636;2023-02-15T10:34:17;7.80;99.90
37204;DHT22;23098;48.054;10.636;2023-02-15T10:37:10;7.80;99.90
37204;DHT22;23098;48.054;10.636;2023-02-15T10:40:06;8.10;99.90
37204;DHT22;23098;48.054;10.636;2023-02-15T10:43:10;8.60;99.90
37204;DHT22;23098;48.054;10.636;2023-02-15T10:45:41;9.30;99.10
37204;DHT22;23098;48.054;10.636;2023-02-15T10:50:59;9.50;98.90
37204;DHT22;23098;48.054;10.636;2023-02-15T10:59:36;9.80;98.80
37204;DHT22;23098;48.054;10.636;2023-02-15T11:02:20;9.70;98.30
37204;DHT22;23098;48.054;10.636;2023-02-15T11:07:25;10.50;97.90
37204;DHT22;23098;48.054;10.636;2023-02-15T11:09:57;10.50;98.30
37204;DHT22;23098;48.054;10.636;2023-02-15T11:12:27;10.70;97.70
37204;DHT22;23098;48.054;10.636;2023-02-15T11:15:02;11.20;97.20
37204;DHT22;23098;48.054;10.636;2023-02-15T11:17:40;10.90;96.50
37204;DHT22;23098;48.054;10.636;2023-02-15T11:22:51;11.90;95.80
37204;DHT22;23098;48.054;10.636;2023-02-15T11:25:23;11.30;95.40
37204;DHT22;23098;48.054;10.636;2023-02-15T11:27:50;11.40;95.60
37204;DHT22;23098;48.054;10.636;2023-02-15T11:30:27;11.50;95.40
37204;DHT22;23098;48.054;10.636;2023-02-15T11:32:58;11.50;95.60
37204;DHT22;23098;48.054;10.636;2023-02-15T11:35:31;12.30;95.50
37204;DHT22;23098;48.054;10.636;2023-02-15T11:40:57;12.50;94.60
37204;DHT22;23098;48.054;10.636;2023-02-15T11:43:54;12.80;94.30
37204;DHT22;23098;48.054;10.636;2023-02-15T11:46:21;12.90;93.40
37204;DHT22;23098;48.054;10.636;2023-02-15T11:48:47;13.30;93.10
37204;DHT22;23098;48.054;10.636;2023-02-15T11:51:22;14.00;93.10
37204;DHT22;23098;48.054;10.636;2023-02-15T11:53:49;15.50;91.60
37204;DHT22;23098;48.054;10.636;2023-02-15T11:56:17;16.10;90.50
37204;DHT22;23098;48.054;10.636;2023-02-15T11:58:59;16.00;90.10
37204;DHT22;23098;48.054;10.636;2023-02-15T12:01:32;15.80;90.00
37204;DHT22;23098;48.054;10.636;2023-02-15T12:04:29;16.50;89.00
37204;DHT22;23098;48.054;10.636;2023-02-15T12:07:03;16.00;88.70
37204;DHT22;23098;48.054;10.636;2023-02-15T12:09:46;16.00;88.50
37204;DHT22;23098;48.054;10.636;2023-02-15T12:12:42;15.90;89.80
37204;DHT22;23098;48.054;10.636;2023-02-15T12:15:11;16.50;88.00
37204;DHT22;23098;48.054;10.636;2023-02-15T12:17:48;16.50;88.10
37204;DHT22;23098;48.054;10.636;2023-02-15T12:23:14;16.80;88.50
37204;DHT22;23098;48.054;10.636;2023-02-15T12:25:51;17.10;88.60
37204;DHT22;23098;48.054;10.636;2023-02-15T12:28:44;16.80;88.40
37204;DHT22;23098;48.054;10.636;2023-02-15T12:31:26;16.10;89.40
37204;DHT22;23098;48.054;10.636;2023-02-15T12:33:57;15.80;90.10
37204;DHT22;23098;48.054;10.636;2023-02-15T12:36:30;16.00;89.40
37204;DHT22;23098;48.054;10.636;2023-02-15T12:39:16;15.90;88.00
37204;DHT22;23098;48.054;10.636;2023-02-15T12:41:58;15.80;89.20
37204;DHT22;23098;48.054;10.636;2023-02-15T12:44:32;15.90;90.00
37204;DHT22;23098;48.054;10.636;2023-02-15T12:47:04;15.60;88.00
37204;DHT22;23098;48.054;10.636;2023-02-15T12:49:32;15.30;89.50
37204;DHT22;23098;48.054;10.636;2023-02-15T12:52:04;15.00;90.00
37204;DHT22;23098;48.054;10.636;2023-02-15T12:54:40;15.30;90.70
37204;DHT22;23098;48.054;10.636;2023-02-15T12:57:20;15.60;89.10
37204;DHT22;23098;48.054;10.636;2023-02-15T12:59:54;15.70;89.90
37204;DHT22;23098;48.054;10.636;2023-02-15T13:02:29;15.60;90.00
37204;DHT22;23098;48.054;10.636;2023-02-15T13:04:56;15.70;88.30
37204;DHT22;23098;48.054;10.636;2023-02-15T13:07:25;15.80;87.70
37204;DHT22;23098;48.054;10.636;2023-02-15T13:09:54;15.80;88.30
37204;DHT22;23098;48.054;10.636;2023-02-15T13:12:25;16.00;89.20
37204;DHT22;23098;48.054;10.636;2023-02-15T13:14:58;15.90;89.30
37204;DHT22;23098;48.054;10.636;2023-02-15T13:17:30;16.10;88.80
37204;DHT22;23098;48.054;10.636;2023-02-15T13:20:04;16.20;88.50
37204;DHT22;23098;48.054;10.636;2023-02-15T13:22:41;16.50;87.10
37204;DHT22;23098;48.054;10.636;2023-02-15T13:25:22;16.10;86.70
37204;DHT22;23098;48.054;10.636;2023-02-15T13:27:52;16.20;86.20
37204;DHT22;23098;48.054;10.636;2023-02-15T13:30:31;16.10;86.20
37204;DHT22;23098;48.054;10.636;2023-02-15T13:33:03;16.30;87.40
37204;DHT22;23098;48.054;10.636;2023-02-15T13:35:38;16.20;86.00
37204;DHT22;23098;48.054;10.636;2023-02-15T13:38:16;16.30;86.60
37204;DHT22;23098;48.054;10.636;2023-02-15T13:40:59;16.20;86.00
37204;DHT22;23098;48.054;10.636;2023-02-15T13:43:45;15.70;85.80
37204;DHT22;23098;48.054;10.636;2023-02-15T13:49:05;16.00;88.40
37204;DHT22;23098;48.054;10.636;2023-02-15T13:51:45;16.00;88.80
37204;DHT22;23098;48.054;10.636;2023-02-15T13:57:06;15.80;87.30
37204;DHT22;23098;48.054;10.636;2023-02-15T14:00:03;15.70;88.10
37204;DHT22;23098;48.054;10.636;2023-02-15T14:05:50;15.50;86.50
37204;DHT22;23098;48.054;10.636;2023-02-15T14:11:27;15.50;86.20
37204;DHT22;23098;48.054;10.636;2023-02-15T14:14:30;15.30;87.80
37204;DHT22;23098;48.054;10.636;2023-02-15T14:22:35;15.30;86.90
37204;DHT22;23098;48.054;10.636;2023-02-15T14:28:28;14.80;88.20
37204;DHT22;23098;48.054;10.636;2023-02-15T14:30:56;15.10;89.70
37204;DHT22;23098;48.054;10.636;2023-02-15T14:33:32;15.10;86.70
37204;DHT22;23098;48.054;10.636;2023-02-15T14:36:00;14.70;89.10
37204;DHT22;23098;48.054;10.636;2023-02-15T14:41:47;13.40;93.30
37204;DHT22;23098;48.054;10.636;2023-02-15T14:44:23;13.00;93.70
37204;DHT22;23098;48.054;10.636;2023-02-15T14:47:05;12.70;94.40
37204;DHT22;23098;48.054;10.636;2023-02-15T14:49:40;12.60;95.30
37204;DHT22;23098;48.054;10.636;2023-02-15T14:52:08;12.10;95.90
37204;DHT22;23098;48.054;10.636;2023-02-15T14:59:55;12.00;95.80
37204;DHT22;23098;48.054;10.636;2023-02-15T15:02:41;11.90;95.90
37204;DHT22;23098;48.054;10.636;2023-02-15T15:05:21;11.90;96.00
37204;DHT22;23098;48.054;10.636;2023-02-15T15:07:53;11.70;96.50
37204;DHT22;23098;48.054;10.636;2023-02-15T15:12:53;11.30;97.40
37204;DHT22;23098;48.054;10.636;2023-02-15T15:18:04;11.20;97.70
37204;DHT22;23098;48.054;10.636;2023-02-15T15:20:38;11.30;97.40
37204;DHT22;23098;48.054;10.636;2023-02-15T15:45:32;10.20;99.90
37204;DHT22;23098;48.054;10.636;2023-02-15T15:48:28;10.00;99.90
37204;DHT22;23098;48.054;10.636;2023-02-15T15:51:02;9.80;99.90
37204;DHT22;23098;48.054;10.636;2023-02-15T15:53:32;9.70;99.90
37204;DHT22;23098;48.054;10.636;2023-02-15T15:56:04;9.60;99.90
37204;DHT22;23098;48.054;10.636;2023-02-15T15:58:30;9.50;99.90
37204;DHT22;23098;48.054;10.636;2023-02-15T16:01:06;9.40;99.90
37204;DHT22;23098;48.054;10.636;2023-02-15T16:03:33;9.30;99.90
37204;DHT22;23098;48.054;10.636;2023-02-15T16:05:59;9.30;99.90
37204;DHT22;23098;48.054;10.636;2023-02-15T16:08:29;8.90;99.90
37204;DHT22;23098;48.054;10.636;2023-02-15T16:10:55;8.80;99.90
37204;DHT22;23098;48.054;10.636;2023-02-15T16:13:22;8.70;99.90
37204;DHT22;23098;48.054;10.636;2023-02-15T16:15:50;8.60;99.90
37204;DHT22;23098;48.054;10.636;2023-02-15T16:18:20;8.50;99.90
37204;DHT22;23098;48.054;10.636;2023-02-15T16:26:35;8.20;99.90
37204;DHT22;23098;48.054;10.636;2023-02-15T16:29:17;8.00;99.90
37204;DHT22;23098;48.054;10.636;2023-02-15T16:31:56;7.80;99.90
37204;DHT22;23098;48.054;10.636;2023-02-15T16:34:21;7.70;99.90
37204;DHT22;23098;48.054;10.636;2023-02-15T16:36:47;7.60;99.90
37204;DHT22;23098;48.054;10.636;2023-02-15T16:39:19;7.50;99.90
37204;DHT22;23098;48.054;10.636;2023-02-15T16:41:45;7.40;99.90
37204;DHT22;23098;48.054;10.636;2023-02-15T16:44:17;7.40;99.90
37204;DHT22;23098;48.054;10.636;2023-02-15T16:46:49;7.20;99.90
37204;DHT22;23098;48.054;10.636;2023-02-15T16:49:20;7.10;99.90
37204;DHT22;23098;48.054;10.636;2023-02-15T16:52:01;7.00;99.90
37204;DHT22;23098;48.054;10.636;2023-02-15T16:54:28;6.90;99.90
37204;DHT22;23098;48.054;10.636;2023-02-15T16:56:56;6.80;99.90
37204;DHT22;23098;48.054;10.636;2023-02-15T16:59:41;6.60;99.90
37204;DHT22;23098;48.054;10.636;2023-02-15T17:02:17;6.50;99.90
37204;DHT22;23098;48.054;10.636;2023-02-15T17:04:44;6.40;99.90
37204;DHT22;23098;48.054;10.636;2023-02-15T17:07:20;6.20;99.90
37204;DHT22;23098;48.054;10.636;2023-02-15T17:09:51;6.10;99.90
37204;DHT22;23098;48.054;10.636;2023-02-15T17:12:52;6.00;99.90
37204;DHT22;23098;48.054;10.636;2023-02-15T17:17:54;5.80;99.90
37204;DHT22;23098;48.054;10.636;2023-02-15T17:20:20;5.70;99.90
37204;DHT22;23098;48.054;10.636;2023-02-15T17:22:47;5.50;99.90
37204;DHT22;23098;48.054;10.636;2023-02-15T17:25:20;5.30;99.90
37204;DHT22;23098;48.054;10.636;2023-02-15T17:27:52;5.10;99.90
37204;DHT22;23098;48.054;10.636;2023-02-15T17:30:26;5.10;99.90
37204;DHT22;23098;48.054;10.636;2023-02-15T17:32:56;5.00;99.90
37204;DHT22;23098;48.054;10.636;2023-02-15T17:35:23;4.90;99.90
37204;DHT22;23098;48.054;10.636;2023-02-15T17:37:54;4.80;99.90
37204;DHT22;23098;48.054;10.636;2023-02-15T17:40:26;4.60;99.90
37204;DHT22;23098;48.054;10.636;2023-02-15T17:42:52;4.50;99.90
37204;DHT22;23098;48.054;10.636;2023-02-15T17:45:18;4.40;99.90
37204;DHT22;23098;48.054;10.636;2023-02-15T17:47:46;4.20;99.90
37204;DHT22;23098;48.054;10.636;2023-02-15T17:50:22;4.10;99.90
37204;DHT22;23098;48.054;10.636;2023-02-15T17:52:48;3.90;99.90
37204;DHT22;23098;48.054;10.636;2023-02-15T17:55:17;3.90;99.90
37204;DHT22;23098;48.054;10.636;2023-02-15T17:58:13;3.80;99.90
37204;DHT22;23098;48.054;10.636;2023-02-15T18:00:45;3.70;99.90
37204;DHT22;23098;48.054;10.636;2023-02-15T18:06:21;3.60;99.90
37204;DHT22;23098;48.054;10.636;2023-02-15T18:09:07;3.60;99.90
37204;DHT22;23098;48.054;10.636;2023-02-15T18:11:52;3.50;99.90
37204;DHT22;23098;48.054;10.636;2023-02-15T18:14:18;3.40;99.90
37204;DHT22;23098;48.054;10.636;2023-02-15T18:16:43;3.30;99.90